createdAt,value
2019-05-18T00:01:58.209Z,11.67
2019-05-18T00:04:48.589Z,11.61
2019-05-18T00:07:31.791Z,11.54
2019-05-18T00:10:22.175Z,11.46
2019-05-18T00:13:05.405Z,11.37
2019-05-18T00:15:55.731Z,11.35
2019-05-18T00:18:38.909Z,11.28
2019-05-18T00:21:29.303Z,11.18
2019-05-18T00:24:12.669Z,11.25
2019-05-18T00:27:03.043Z,11.19
2019-05-18T00:29:46.220Z,11.18
2019-05-18T00:32:36.585Z,11.08
2019-05-18T00:35:19.409Z,11.05
2019-05-18T00:38:09.761Z,10.98
2019-05-18T00:40:53.328Z,10.97
2019-05-18T00:43:43.717Z,10.88
2019-05-18T00:46:27.077Z,10.85
2019-05-18T00:49:09.997Z,10.81
2019-05-18T00:52:00.331Z,10.80
2019-05-18T00:54:43.198Z,10.70
2019-05-18T00:57:33.566Z,10.66
2019-05-18T01:00:16.323Z,10.58
2019-05-18T01:03:06.666Z,10.60
2019-05-18T01:05:50.010Z,10.53
2019-05-18T01:08:40.358Z,10.48
2019-05-18T01:11:23.834Z,10.44
2019-05-18T01:14:06.428Z,10.38
2019-05-18T01:16:56.779Z,10.34
2019-05-18T01:19:40.028Z,10.31
2019-05-18T01:22:30.351Z,10.29
2019-05-18T01:25:13.636Z,10.27
2019-05-18T01:28:03.966Z,10.25
2019-05-18T01:30:47.091Z,10.21
2019-05-18T01:33:30.560Z,10.21
2019-05-18T01:36:20.942Z,10.18
2019-05-18T01:39:03.995Z,10.16
2019-05-18T01:41:54.322Z,10.24
2019-05-18T01:44:57.161Z,10.27
2019-05-18T01:47:47.478Z,10.26
2019-05-18T01:50:30.776Z,10.23
2019-05-18T01:53:21.107Z,10.23
2019-05-18T01:56:03.949Z,10.12
2019-05-18T01:58:54.280Z,10.10
2019-05-18T02:01:37.507Z,10.12
2019-05-18T02:04:27.909Z,10.15
2019-05-18T02:07:11.276Z,10.14
2019-05-18T02:10:01.653Z,10.07
2019-05-18T02:12:45.098Z,10.14
2019-05-18T02:15:35.465Z,10.07
2019-05-18T02:18:28.627Z,10.06
2019-05-18T02:21:10.200Z,9.97
2019-05-18T02:23:53.108Z,9.91
2019-05-18T02:26:36.419Z,9.82
2019-05-18T02:29:26.773Z,9.79
2019-05-18T02:32:10.070Z,9.78
2019-05-18T02:35:00.385Z,9.81
2019-05-18T02:37:43.483Z,9.82
2019-05-18T02:40:33.821Z,9.76
2019-05-18T02:43:17.396Z,9.71
2019-05-18T02:46:07.724Z,9.71
2019-05-18T02:48:51.259Z,9.67
2019-05-18T02:51:41.595Z,9.67
2019-05-18T02:54:23.431Z,9.63
2019-05-18T02:57:05.339Z,9.57
2019-05-18T02:59:48.770Z,9.56
2019-05-18T03:02:39.104Z,9.52
2019-05-18T03:05:21.825Z,9.52
2019-05-18T03:08:12.180Z,9.48
2019-05-18T03:10:55.635Z,9.43
2019-05-18T03:13:46.014Z,9.39
2019-05-18T03:16:29.213Z,9.45
2019-05-18T03:19:19.583Z,9.43
2019-05-18T03:22:02.040Z,9.36
2019-05-18T03:24:52.451Z,9.35
2019-05-18T03:27:35.881Z,9.31
2019-05-18T03:30:26.258Z,9.29
2019-05-18T03:33:16.603Z,9.28
2019-05-18T03:35:59.272Z,9.24
2019-05-18T03:38:49.622Z,9.22
2019-05-18T03:41:32.205Z,9.19
2019-05-18T03:44:22.571Z,9.20
2019-05-18T03:47:05.313Z,9.22
2019-05-18T03:49:55.655Z,9.21
2019-05-18T03:52:39.059Z,9.18
2019-05-18T03:55:29.404Z,9.11
2019-05-18T03:58:12.531Z,9.06
2019-05-18T04:01:03.058Z,9.06
2019-05-18T04:03:53.480Z,9.15
2019-05-18T04:06:36.609Z,9.17
2019-05-18T04:09:26.924Z,9.20
2019-05-18T04:12:10.138Z,9.26
2019-05-18T04:14:52.783Z,9.32
2019-05-18T04:17:43.122Z,9.38
2019-05-18T04:20:26.228Z,9.49
2019-05-18T04:23:16.542Z,9.53
2019-05-18T04:25:59.865Z,9.61
2019-05-18T04:28:50.180Z,9.66
2019-05-18T04:31:33.624Z,9.74
2019-05-18T04:34:23.973Z,9.80
2019-05-18T04:37:07.627Z,9.86
2019-05-18T04:39:57.942Z,9.93
2019-05-18T04:42:48.301Z,9.94
2019-05-18T04:45:29.877Z,9.98
2019-05-18T04:48:20.203Z,10.10
2019-05-18T04:51:03.066Z,10.19
2019-05-18T04:54:12.418Z,10.23
2019-05-18T04:56:55.821Z,10.35
2019-05-18T04:59:46.169Z,10.42
2019-05-18T05:02:29.627Z,10.51
2019-05-18T05:05:19.983Z,10.56
2019-05-18T05:08:03.281Z,10.65
2019-05-18T05:10:46.529Z,10.72
2019-05-18T05:13:36.929Z,10.80
2019-05-18T05:16:19.766Z,10.90
2019-05-18T05:19:10.133Z,10.99
2019-05-18T05:21:53.253Z,11.10
2019-05-18T05:24:43.628Z,11.08
2019-05-18T05:27:46.861Z,11.22
2019-05-18T05:30:38.034Z,11.38
2019-05-18T05:33:28.535Z,11.40
2019-05-18T05:36:11.504Z,11.54
2019-05-18T05:39:01.870Z,11.65
2019-05-18T05:41:45.327Z,11.72
2019-05-18T05:44:35.738Z,11.86
2019-05-18T05:47:18.391Z,11.91
2019-05-18T05:53:45.181Z,12.01
2019-05-18T05:56:27.817Z,12.07
2019-05-18T05:59:18.220Z,12.10
2019-05-18T06:02:00.840Z,12.19
2019-05-18T06:04:51.217Z,12.37
2019-05-18T06:07:34.294Z,12.57
2019-05-18T06:10:24.671Z,12.85
2019-05-18T06:13:07.415Z,13.02
2019-05-18T06:15:57.795Z,13.20
2019-05-18T06:18:40.355Z,13.39
2019-05-18T06:21:30.782Z,13.59
2019-05-18T06:24:21.202Z,13.79
2019-05-18T06:27:11.582Z,13.88
2019-05-18T06:30:01.955Z,13.95
2019-05-18T06:32:44.921Z,14.09
2019-05-18T06:35:35.267Z,14.26
2019-05-18T06:38:38.523Z,14.39
2019-05-18T06:41:28.912Z,14.53
2019-05-18T06:44:11.744Z,14.81
2019-05-18T06:47:02.151Z,15.05
2019-05-18T06:49:44.788Z,15.13
2019-05-18T06:52:35.141Z,15.26
2019-05-18T06:55:17.928Z,15.33
2019-05-18T06:58:08.414Z,15.42
2019-05-18T07:00:51.137Z,15.55
2019-05-18T07:03:44.949Z,15.65
2019-05-18T07:06:45.810Z,15.71
2019-05-18T07:09:36.165Z,15.88
2019-05-18T07:12:18.951Z,16.05
2019-05-18T07:18:37.777Z,16.40
2019-05-18T07:21:28.102Z,16.61
2019-05-18T07:24:11.257Z,16.67
2019-05-18T07:26:54.217Z,16.79
2019-05-18T07:29:44.590Z,16.88
2019-05-18T07:32:27.084Z,16.92
2019-05-18T07:35:17.743Z,17.07
2019-05-18T07:38:00.614Z,17.19
2019-05-18T07:40:50.978Z,17.33
2019-05-18T07:43:33.533Z,17.43
2019-05-18T07:46:23.908Z,17.56
2019-05-18T07:49:06.957Z,17.77
2019-05-18T07:51:57.364Z,17.99
2019-05-18T07:54:40.540Z,18.18
2019-05-18T07:57:30.888Z,18.43
2019-05-18T08:00:14.467Z,18.70
2019-05-18T08:03:04.844Z,18.85
2019-05-18T08:05:47.998Z,18.95
2019-05-18T08:08:38.360Z,19.01
2019-05-18T08:11:21.009Z,19.04
2019-05-18T08:14:11.344Z,19.20
2019-05-18T08:16:53.938Z,19.43
2019-05-18T08:19:44.208Z,19.58
2019-05-18T08:22:27.721Z,19.79
2019-05-18T08:25:18.045Z,19.93
2019-05-18T08:28:00.717Z,20.10
2019-05-18T08:30:51.049Z,20.46
2019-05-18T08:33:33.824Z,20.70
2019-05-18T08:36:24.172Z,20.84
2019-05-18T08:39:26.611Z,20.80
2019-05-18T08:42:16.961Z,20.64
2019-05-18T08:45:00.146Z,20.34
2019-05-18T08:47:50.487Z,20.07
2019-05-18T08:50:33.808Z,19.90
2019-05-18T08:53:24.274Z,19.79
2019-05-18T08:56:07.655Z,19.58
2019-05-18T08:58:58.009Z,19.55
2019-05-18T09:01:41.169Z,19.65
2019-05-18T09:04:31.713Z,19.58
2019-05-18T09:07:15.026Z,19.63
2019-05-18T09:10:05.815Z,19.54
2019-05-18T09:12:49.017Z,19.51
2019-05-18T09:15:39.438Z,19.65
2019-05-18T09:18:43.821Z,19.97
2019-05-18T09:21:34.231Z,20.27
2019-05-18T09:24:17.672Z,20.81
2019-05-18T09:27:08.058Z,21.46
2019-05-18T09:29:51.102Z,21.74
2019-05-18T09:32:41.441Z,22.32
2019-05-18T09:35:24.159Z,22.74
2019-05-18T09:38:14.645Z,23.26
2019-05-18T09:40:57.905Z,23.54
2019-05-18T09:43:47.630Z,23.87
2019-05-18T09:46:29.655Z,24.01
2019-05-18T09:49:12.520Z,24.32
2019-05-18T09:52:02.937Z,24.33
2019-05-18T09:54:46.036Z,24.16
2019-05-18T09:57:36.409Z,23.96
2019-05-18T10:00:21.281Z,23.75
2019-05-18T10:06:31.384Z,23.70
2019-05-18T10:09:13.990Z,24.27
2019-05-18T10:12:04.362Z,24.84
2019-05-18T10:14:47.417Z,25.16
2019-05-18T10:17:37.811Z,25.50
2019-05-18T10:20:20.829Z,25.83
2019-05-18T10:23:13.557Z,25.63
2019-05-18T10:26:15.485Z,25.72
2019-05-18T10:29:05.907Z,26.13
2019-05-18T10:31:48.535Z,26.18
2019-05-18T10:34:38.885Z,26.45
2019-05-18T10:37:21.525Z,26.71
2019-05-18T10:40:32.384Z,26.75
2019-05-18T10:43:15.472Z,26.50
2019-05-18T10:46:05.878Z,26.70
2019-05-18T10:48:49.335Z,26.83
2019-05-18T10:51:39.735Z,27.29
2019-05-18T10:54:23.319Z,27.73
2019-05-18T10:57:13.652Z,27.95
2019-05-18T10:59:56.340Z,27.91
2019-05-18T11:02:46.751Z,27.17
2019-05-18T11:05:29.568Z,27.38
2019-05-18T11:08:19.898Z,27.99
2019-05-18T11:11:22.434Z,28.10
2019-05-18T11:14:12.770Z,27.90
2019-05-18T11:16:56.140Z,28.05
2019-05-18T11:19:38.886Z,28.28
2019-05-18T11:22:29.259Z,28.25
2019-05-18T11:25:12.250Z,28.53
2019-05-18T11:28:02.638Z,28.27
2019-05-18T11:31:05.262Z,27.45
2019-05-18T11:33:55.601Z,27.62
2019-05-18T11:36:38.252Z,27.89
2019-05-18T11:39:28.601Z,27.71
2019-05-18T11:42:18.957Z,27.23
2019-05-18T11:45:01.712Z,27.72
2019-05-18T11:47:52.080Z,28.35
2019-05-18T11:50:35.206Z,28.77
2019-05-18T11:53:25.577Z,28.69
2019-05-18T11:56:08.245Z,28.46
2019-05-18T11:58:58.601Z,28.56
2019-05-18T12:02:01.450Z,28.79
2019-05-18T12:04:51.853Z,29.04
2019-05-18T12:07:42.213Z,29.32
2019-05-18T12:10:24.955Z,29.52
2019-05-18T12:13:15.304Z,29.17
2019-05-18T12:15:58.194Z,28.40
2019-05-18T12:18:48.536Z,28.23
2019-05-18T12:21:32.129Z,27.87
2019-05-18T12:24:22.504Z,27.12
2019-05-18T12:27:05.814Z,26.13
2019-05-18T12:29:56.167Z,25.57
2019-05-18T12:32:38.801Z,25.52
2019-05-18T12:35:29.232Z,25.49
2019-05-18T12:38:12.806Z,25.65
2019-05-18T12:44:04.795Z,26.85
2019-05-18T12:46:48.084Z,27.35
2019-05-18T12:49:38.499Z,27.81
2019-05-18T12:52:21.448Z,28.30
2019-05-18T12:58:20.481Z,29.20
2019-05-18T13:01:10.867Z,29.74
2019-05-18T13:03:53.487Z,29.66
2019-05-18T13:06:43.857Z,29.78
2019-05-18T13:09:46.335Z,29.71
2019-05-18T13:12:36.665Z,29.45
2019-05-18T13:15:27.158Z,29.84
2019-05-18T13:18:17.505Z,29.86
2019-05-18T13:21:00.326Z,29.35
2019-05-18T13:23:50.733Z,28.40
2019-05-18T13:26:33.311Z,28.00
2019-05-18T13:29:23.721Z,27.90
2019-05-18T13:32:06.394Z,27.95
2019-05-18T13:34:56.766Z,27.66
2019-05-18T13:37:40.081Z,27.73
2019-05-18T13:43:38.864Z,27.82
2019-05-18T13:46:29.215Z,27.52
2019-05-18T13:49:31.838Z,27.51
2019-05-18T13:52:22.186Z,27.11
2019-05-18T13:55:05.258Z,26.66
2019-05-18T13:57:55.752Z,26.29
2019-05-18T14:00:38.436Z,25.82
2019-05-18T14:03:28.792Z,25.78
2019-05-18T14:06:11.721Z,25.86
2019-05-18T14:09:02.085Z,25.86
2019-05-18T14:11:44.914Z,25.76
2019-05-18T14:17:43.218Z,25.39
2019-05-18T14:20:33.572Z,25.38
2019-05-18T14:23:16.606Z,25.56
2019-05-18T14:26:06.954Z,25.53
2019-05-18T14:28:50.256Z,25.67
2019-05-18T14:31:40.610Z,25.86
2019-05-18T14:34:23.807Z,25.88
2019-05-18T14:40:16.825Z,26.38
2019-05-18T14:43:00.036Z,26.76
2019-05-18T14:45:50.408Z,26.56
2019-05-18T14:48:40.772Z,26.29
2019-05-18T14:51:23.976Z,26.19
2019-05-18T14:54:14.308Z,26.06
2019-05-18T14:56:56.903Z,25.88
2019-05-18T14:59:47.257Z,25.40
2019-05-18T15:02:30.718Z,25.28
2019-05-18T15:05:21.052Z,25.16
2019-05-18T15:08:03.742Z,24.89
2019-05-18T15:13:56.088Z,24.95
2019-05-18T15:16:46.420Z,25.04
2019-05-18T15:19:29.281Z,25.21
2019-05-18T15:22:19.655Z,25.33
2019-05-18T15:25:03.470Z,25.57
2019-05-18T15:27:53.791Z,25.46
2019-05-18T15:30:36.936Z,24.61
2019-05-18T15:33:27.294Z,24.28
2019-05-18T15:36:10.052Z,23.82
2019-05-18T15:39:00.436Z,22.91
2019-05-18T15:41:42.987Z,22.52
2019-05-18T15:44:33.365Z,22.26
2019-05-18T15:47:16.904Z,22.16
2019-05-18T15:53:35.823Z,21.95
2019-05-18T15:56:26.214Z,21.99
2019-05-18T15:59:09.760Z,22.07
2019-05-18T16:02:00.113Z,22.08
2019-05-18T16:04:43.458Z,22.15
2019-05-18T16:07:33.797Z,22.33
2019-05-18T16:10:17.388Z,22.50
2019-05-18T16:13:08.673Z,22.67
2019-05-18T16:15:51.405Z,22.73
2019-05-18T16:18:41.762Z,22.81
2019-05-18T16:21:25.110Z,23.06
2019-05-18T16:24:15.488Z,23.04
2019-05-18T16:27:05.908Z,23.17
2019-05-18T16:29:48.717Z,23.24
2019-05-18T16:32:39.106Z,23.26
2019-05-18T16:35:22.268Z,23.26
2019-05-18T16:38:12.632Z,23.19
2019-05-18T16:40:55.220Z,23.21
2019-05-18T16:43:45.609Z,23.32
2019-05-18T16:46:28.932Z,23.28
2019-05-18T16:49:19.264Z,23.24
2019-05-18T16:52:02.034Z,23.14
2019-05-18T16:54:52.353Z,23.04
2019-05-18T16:57:35.120Z,23.01
2019-05-18T17:00:25.694Z,22.92
2019-05-18T17:03:08.413Z,22.89
2019-05-18T17:05:58.752Z,22.79
2019-05-18T17:09:01.215Z,22.72
2019-05-18T17:11:51.621Z,22.61
2019-05-18T17:14:35.209Z,22.54
2019-05-18T17:17:25.553Z,22.52
2019-05-18T17:20:08.436Z,22.48
2019-05-18T17:22:58.788Z,22.41
2019-05-18T17:25:41.946Z,22.38
2019-05-18T17:28:24.609Z,22.33
2019-05-18T17:31:14.975Z,22.27
2019-05-18T17:33:58.297Z,22.30
2019-05-18T17:36:52.579Z,22.31
2019-05-18T17:39:52.935Z,22.26
2019-05-18T17:42:43.324Z,22.16
2019-05-18T17:45:26.246Z,22.12
2019-05-18T17:48:16.578Z,22.08
2019-05-18T17:50:58.156Z,22.05
2019-05-18T17:53:41.067Z,21.96
2019-05-18T17:56:31.448Z,21.87
2019-05-18T17:59:15.039Z,21.75
2019-05-18T18:02:05.395Z,21.64
2019-05-18T18:04:48.415Z,21.54
2019-05-18T18:07:38.753Z,21.46
2019-05-18T18:10:41.270Z,21.37
2019-05-18T18:13:31.615Z,21.27
2019-05-18T18:16:14.592Z,21.20
2019-05-18T18:19:04.979Z,21.03
2019-05-18T18:22:08.146Z,20.88
2019-05-18T18:24:58.497Z,20.75
2019-05-18T18:27:41.784Z,20.75
2019-05-18T18:30:32.129Z,20.58
2019-05-18T18:33:15.599Z,20.48
2019-05-18T18:36:05.971Z,20.37
2019-05-18T18:38:49.481Z,20.29
2019-05-18T18:41:39.833Z,20.18
2019-05-18T18:44:23.199Z,20.09
2019-05-18T18:47:13.549Z,20.02
2019-05-18T18:49:56.447Z,20.00
2019-05-18T18:52:46.787Z,19.92
2019-05-18T18:55:29.945Z,19.87
2019-05-18T18:58:20.328Z,19.79
2019-05-18T19:01:03.468Z,19.72
2019-05-18T19:03:53.848Z,19.65
2019-05-18T19:06:37.268Z,19.52
2019-05-18T19:09:27.622Z,19.43
2019-05-18T19:12:10.842Z,19.37
2019-05-18T19:15:01.201Z,19.30
2019-05-18T19:17:44.289Z,19.24
2019-05-18T19:20:34.661Z,19.17
2019-05-18T19:23:17.716Z,19.10
2019-05-18T19:26:08.026Z,19.08
2019-05-18T19:28:51.355Z,19.10
2019-05-18T19:31:41.723Z,19.05
2019-05-18T19:34:24.852Z,19.04
2019-05-18T19:37:15.211Z,19.02
2019-05-18T19:39:58.719Z,19.00
2019-05-18T19:42:49.088Z,18.98
2019-05-18T19:45:32.251Z,18.93
2019-05-18T19:48:22.593Z,18.91
2019-05-18T19:51:05.206Z,18.85
2019-05-18T19:53:55.590Z,18.74
2019-05-18T19:56:41.782Z,18.65
2019-05-18T19:59:30.890Z,18.56
2019-05-18T20:02:18.224Z,18.48
2019-05-18T20:05:08.672Z,18.41
2019-05-18T20:08:10.975Z,18.38
2019-05-18T20:11:01.393Z,18.28
2019-05-18T20:13:44.472Z,18.23
2019-05-18T20:16:34.900Z,18.22
2019-05-18T20:19:39.563Z,18.16
2019-05-18T20:22:30.219Z,18.10
2019-05-18T20:25:17.620Z,18.08
2019-05-18T20:28:01.142Z,18.06
2019-05-18T20:30:51.583Z,18.03
2019-05-18T20:33:34.857Z,18.00
2019-05-18T20:36:25.155Z,17.96
2019-05-18T20:39:08.470Z,17.95
2019-05-18T20:41:58.975Z,17.92
2019-05-18T20:45:02.050Z,17.87
2019-05-18T20:48:12.643Z,17.82
2019-05-18T20:50:55.357Z,17.78
2019-05-18T20:53:45.712Z,17.75
2019-05-18T20:56:29.017Z,17.72
2019-05-18T20:59:19.418Z,17.72
2019-05-18T21:02:02.781Z,17.68
2019-05-18T21:04:53.156Z,17.58
2019-05-18T21:07:35.773Z,17.55
2019-05-18T21:10:26.167Z,17.52
2019-05-18T21:13:09.694Z,17.47
2019-05-18T21:16:00.062Z,17.47
2019-05-18T21:18:42.526Z,17.43
2019-05-18T21:21:32.891Z,17.42
2019-05-18T21:24:16.429Z,17.40
2019-05-18T21:27:06.737Z,17.41
2019-05-18T21:29:49.860Z,17.28
2019-05-18T21:32:40.244Z,17.15
2019-05-18T21:35:23.606Z,17.10
2019-05-18T21:38:14.034Z,17.12
2019-05-18T21:40:57.431Z,17.07
2019-05-18T21:43:47.788Z,17.10
2019-05-18T21:46:30.600Z,17.01
2019-05-18T21:49:20.964Z,16.99
2019-05-18T21:52:04.437Z,17.03
2019-05-18T21:54:54.805Z,16.98
2019-05-18T21:57:45.151Z,16.91
2019-05-18T22:00:35.656Z,16.91
2019-05-18T22:03:18.573Z,16.91
2019-05-18T22:06:08.971Z,16.89
2019-05-18T22:08:51.525Z,16.86
2019-05-18T22:11:35.377Z,16.81
2019-05-18T22:14:38.863Z,16.77
2019-05-18T22:17:30.472Z,16.71
2019-05-18T22:20:20.813Z,16.66
2019-05-18T22:23:03.696Z,16.58
2019-05-18T22:25:56.862Z,16.50
2019-05-18T22:28:58.464Z,16.46
2019-05-18T22:31:41.217Z,16.43
2019-05-18T22:34:31.577Z,16.43
2019-05-18T22:37:14.737Z,16.37
2019-05-18T22:40:05.665Z,16.31
2019-05-18T22:42:48.765Z,16.26
2019-05-18T22:45:39.150Z,16.19
2019-05-18T22:48:21.660Z,16.13
2019-05-18T22:51:12.045Z,16.07
2019-05-18T22:53:54.552Z,16.00
2019-05-18T22:56:44.922Z,15.94
2019-05-18T22:59:28.292Z,15.89
2019-05-18T23:02:18.669Z,15.84
2019-05-18T23:05:02.291Z,15.77
2019-05-18T23:07:52.506Z,15.74
2019-05-18T23:10:35.737Z,15.72
2019-05-18T23:13:26.041Z,15.66
2019-05-18T23:16:08.707Z,15.61
2019-05-18T23:18:59.133Z,15.58
2019-05-18T23:21:42.406Z,15.54
2019-05-18T23:24:32.742Z,15.53
2019-05-18T23:27:16.108Z,15.48
2019-05-18T23:29:58.640Z,15.46
2019-05-18T23:32:50.658Z,15.43
2019-05-18T23:35:53.214Z,15.39
2019-05-18T23:38:43.568Z,15.34
2019-05-18T23:41:26.729Z,15.31
2019-05-18T23:44:17.112Z,15.31
2019-05-18T23:46:59.914Z,15.31
2019-05-18T23:49:31.217Z,15.29
2019-05-18T23:52:21.606Z,15.26
2019-05-18T23:55:04.620Z,15.21
2019-05-18T23:57:54.993Z,15.17
